Time,TemperatureF,DewpointF,PressureIn,WindDirection,WindDirectionDegrees,WindSpeedMPH,WindSpeedGustMPH,Humidity,HourlyPrecipIn,Conditions,Clouds,dailyrainin,SoftwareType,DateUTC
2013-06-18 00:01:00,70.7,64.3,29.90,WNW,293,0.0,2.5,80,0.18,,,0.19,WUHU216HW,2013-06-18 04:01:00,
2013-06-18 00:06:00,70.7,64.6,29.89,North,0,0.9,0.9,81,0.18,,,0.19,WUHU216HW,2013-06-18 04:06:00,
2013-06-18 00:11:00,70.7,64.6,29.89,SW,225,1.1,1.1,81,0.18,,,0.19,WUHU216HW,2013-06-18 04:11:00,
2013-06-18 00:16:00,70.6,64.8,29.89,South,180,2.0,4.5,82,0.18,,,0.19,WUHU216HW,2013-06-18 04:16:00,
2013-06-18 00:21:00,70.4,64.6,29.89,SSW,203,1.1,4.5,82,0.18,,,0.19,WUHU216HW,2013-06-18 04:21:00,
2013-06-18 00:26:00,70.4,64.9,29.89,SW,225,2.5,2.9,83,0.18,,,0.19,WUHU216HW,2013-06-18 04:26:00,
2013-06-18 00:31:00,70.4,65.3,29.89,SSW,203,2.2,3.8,84,0.18,,,0.19,WUHU216HW,2013-06-18 04:31:00,
2013-06-18 00:36:00,70.2,64.7,29.90,SSW,203,2.7,3.8,83,0.12,,,0.19,WUHU216HW,2013-06-18 04:36:00,
2013-06-18 00:41:00,70.2,64.7,29.89,South,180,0.0,2.7,83,0.03,,,0.19,WUHU216HW,2013-06-18 04:41:00,
2013-06-18 00:46:00,70.2,64.7,29.89,South,180,0.0,0.9,83,0.00,,,0.19,WUHU216HW,2013-06-18 04:46:00,
2013-06-18 00:51:00,70.2,65.1,29.89,West,270,1.3,1.3,84,0.00,,,0.19,WUHU216HW,2013-06-18 04:51:00,
2013-06-18 00:56:00,70.2,65.1,29.89,SW,225,2.5,2.5,84,0.00,,,0.19,WUHU216HW,2013-06-18 04:56:00,
2013-06-18 01:01:00,70.2,65.1,29.89,SSW,203,1.8,2.7,84,0.00,,,0.19,WUHU216HW,2013-06-18 05:01:00,
2013-06-18 01:06:00,70.2,65.1,29.89,South,180,0.9,2.7,84,0.00,,,0.19,WUHU216HW,2013-06-18 05:06:00,
2013-06-18 01:11:00,70.2,65.1,29.89,SSW,203,2.2,2.5,84,0.00,,,0.19,WUHU216HW,2013-06-18 05:11:00,
2013-06-18 01:16:00,70.2,65.1,29.88,SW,225,1.6,3.1,84,0.00,,,0.19,WUHU216HW,2013-06-18 05:16:00,
2013-06-18 01:21:00,70.0,65.3,29.89,SW,225,2.9,3.1,85,0.00,,,0.19,WUHU216HW,2013-06-18 05:21:00,
2013-06-18 01:26:00,69.8,65.1,29.88,SSW,203,2.0,2.9,85,0.00,,,0.19,WUHU216HW,2013-06-18 05:26:00,
2013-06-18 01:31:00,69.7,64.9,29.88,SW,225,0.9,2.5,85,0.00,,,0.19,WUHU216HW,2013-06-18 05:31:00,
2013-06-18 01:36:00,69.5,64.7,29.88,SW,225,2.2,3.4,85,0.00,,,0.19,WUHU216HW,2013-06-18 05:36:00,
2013-06-18 01:41:00,69.5,64.7,29.88,SSW,203,1.8,3.4,85,0.00,,,0.19,WUHU216HW,2013-06-18 05:41:00,
2013-06-18 01:46:00,69.5,65.1,29.88,WSW,248,1.3,2.5,86,0.00,,,0.19,WUHU216HW,2013-06-18 05:46:00,
2013-06-18 01:51:00,69.3,64.5,29.88,SSW,203,0.2,3.1,85,0.00,,,0.19,WUHU216HW,2013-06-18 05:51:00,
2013-06-18 01:56:00,69.3,64.9,29.88,SW,225,0.0,3.1,86,0.00,,,0.19,WUHU216HW,2013-06-18 05:56:00,
2013-06-18 02:01:00,69.1,64.4,29.87,SW,225,1.8,1.8,85,0.00,,,0.19,WUHU216HW,2013-06-18 06:01:00,
2013-06-18 02:06:00,69.1,64.4,29.87,SW,225,0.9,2.5,85,0.00,,,0.19,WUHU216HW,2013-06-18 06:06:00,
2013-06-18 02:13:00,69.1,64.4,29.87,SW,225,0.7,1.6,85,0.00,,,0.19,WUHU216HW,2013-06-18 06:13:00,
2013-06-18 02:18:00,69.1,64.4,29.87,South,180,0.7,1.6,85,0.00,,,0.19,WUHU216HW,2013-06-18 06:18:00,
2013-06-18 02:23:00,68.9,64.3,29.86,SW,225,1.3,1.8,85,0.00,,,0.19,WUHU216HW,2013-06-18 06:23:00,
2013-06-18 02:28:00,68.9,64.5,29.86,NNW,338,0.2,1.8,86,0.00,,,0.19,WUHU216HW,2013-06-18 06:28:00,
2013-06-18 02:33:00,68.8,64.1,29.86,WSW,248,1.8,1.8,85,0.00,,,0.19,WUHU216HW,2013-06-18 06:33:00,
2013-06-18 02:38:00,68.8,64.1,29.86,SW,225,1.1,2.5,85,0.00,,,0.19,WUHU216HW,2013-06-18 06:38:00,
2013-06-18 02:44:00,68.4,63.7,29.86,SW,225,1.1,3.1,85,0.00,,,0.19,WUHU216HW,2013-06-18 06:44:00,
2013-06-18 02:49:00,68.4,63.7,29.86,SSW,203,1.8,3.1,85,0.00,,,0.19,WUHU216HW,2013-06-18 06:49:00,
2013-06-18 02:54:00,68.2,63.9,29.86,SSW,203,1.1,2.5,86,0.00,,,0.19,WUHU216HW,2013-06-18 06:54:00,
2013-06-18 02:59:00,68.0,63.7,29.86,South,180,2.5,3.6,86,0.00,,,0.19,WUHU216HW,2013-06-18 06:59:00,
2013-06-18 03:04:00,68.0,63.7,29.86,NW,315,3.4,3.6,86,0.00,,,0.19,WUHU216HW,2013-06-18 07:04:00,
2013-06-18 03:09:00,67.9,63.6,29.85,SSE,158,1.6,3.4,86,0.00,,,0.19,WUHU216HW,2013-06-18 07:09:00,
2013-06-18 03:14:00,67.7,63.4,29.85,South,180,1.6,2.5,86,0.00,,,0.19,WUHU216HW,2013-06-18 07:14:00,
2013-06-18 03:19:00,67.7,63.4,29.85,WSW,248,1.1,2.5,86,0.00,,,0.19,WUHU216HW,2013-06-18 07:19:00,
2013-06-18 03:24:00,67.5,62.8,29.85,West,270,1.8,2.5,85,0.00,,,0.19,WUHU216HW,2013-06-18 07:24:00,
2013-06-18 03:29:00,67.3,62.6,29.85,SW,225,0.4,2.2,85,0.00,,,0.19,WUHU216HW,2013-06-18 07:29:00,
2013-06-18 03:34:00,67.3,62.6,29.85,WSW,248,0.7,3.1,85,0.00,,,0.19,WUHU216HW,2013-06-18 07:34:00,
2013-06-18 03:39:00,67.3,62.6,29.85,SW,225,0.4,3.1,85,0.00,,,0.19,WUHU216HW,2013-06-18 07:39:00,
2013-06-18 03:44:00,67.3,62.6,29.85,SSW,203,0.7,1.8,85,0.00,,,0.19,WUHU216HW,2013-06-18 07:44:00,
2013-06-18 03:49:00,67.1,62.5,29.85,South,180,1.6,1.6,85,0.00,,,0.19,WUHU216HW,2013-06-18 07:49:00,
2013-06-18 03:54:00,67.1,62.5,29.85,South,180,1.1,1.6,85,0.00,,,0.19,WUHU216HW,2013-06-18 07:54:00,
2013-06-18 03:59:00,67.1,62.5,29.84,SW,225,2.0,2.7,85,0.00,,,0.19,WUHU216HW,2013-06-18 07:59:00,
2013-06-18 04:04:00,67.1,62.5,29.84,SW,225,1.6,2.7,85,0.00,,,0.19,WUHU216HW,2013-06-18 08:04:00,
2013-06-18 04:09:00,67.0,62.7,29.84,SW,225,1.3,2.9,86,0.00,,,0.19,WUHU216HW,2013-06-18 08:09:00,
2013-06-18 04:14:00,66.8,62.5,29.84,WSW,248,0.7,2.9,86,0.00,,,0.19,WUHU216HW,2013-06-18 08:14:00,
2013-06-18 04:19:00,66.8,62.5,29.84,WSW,248,1.1,2.7,86,0.00,,,0.19,WUHU216HW,2013-06-18 08:19:00,
2013-06-18 04:24:00,66.6,62.3,29.84,SSW,203,1.1,2.7,86,0.00,,,0.19,WUHU216HW,2013-06-18 08:24:00,
2013-06-18 04:29:00,66.6,62.3,29.84,SSW,203,1.1,2.7,86,0.00,,,0.19,WUHU216HW,2013-06-18 08:29:00,
2013-06-18 04:34:00,66.6,62.3,29.84,SSW,203,1.6,3.1,86,0.00,,,0.19,WUHU216HW,2013-06-18 08:34:00,
2013-06-18 04:39:00,66.4,62.4,29.84,West,270,2.0,3.4,87,0.00,,,0.19,WUHU216HW,2013-06-18 08:39:00,
2013-06-18 04:44:00,66.4,62.4,29.84,SW,225,1.1,3.4,87,0.00,,,0.19,WUHU216HW,2013-06-18 08:44:00,
2013-06-18 04:49:00,66.4,62.4,29.84,East,90,0.7,2.7,87,0.00,,,0.19,WUHU216HW,2013-06-18 08:49:00,
2013-06-18 04:54:00,66.4,62.1,29.83,ENE,68,0.0,1.1,86,0.00,,,0.19,WUHU216HW,2013-06-18 08:54:00,
2013-06-18 04:59:00,66.4,62.1,29.83,ENE,68,0.0,1.1,86,0.00,,,0.19,WUHU216HW,2013-06-18 08:59:00,
2013-06-18 05:04:00,66.4,62.1,29.84,SSW,203,0.0,0.9,86,0.00,,,0.19,WUHU216HW,2013-06-18 09:04:00,
2013-06-18 05:09:00,66.4,62.1,29.83,SSW,203,0.0,0.9,86,0.00,,,0.19,WUHU216HW,2013-06-18 09:09:00,
2013-06-18 05:14:00,66.4,62.1,29.83,SSW,203,0.0,0.0,86,0.00,,,0.19,WUHU216HW,2013-06-18 09:14:00,
2013-06-18 05:19:00,66.4,62.1,29.84,NNW,338,0.0,0.0,86,0.00,,,0.19,WUHU216HW,2013-06-18 09:19:00,
2013-06-18 05:24:00,66.2,62.2,29.84,WSW,248,0.0,0.4,87,0.00,,,0.19,WUHU216HW,2013-06-18 09:24:00,
2013-06-18 05:29:00,66.2,62.2,29.84,WSW,248,0.0,0.0,87,0.00,,,0.19,WUHU216HW,2013-06-18 09:29:00,
2013-06-18 05:34:00,66.2,62.2,29.84,SW,225,0.0,0.9,87,0.00,,,0.19,WUHU216HW,2013-06-18 09:34:00,
2013-06-18 05:39:00,66.1,62.0,29.84,SW,225,0.7,0.9,87,0.00,,,0.19,WUHU216HW,2013-06-18 09:39:00,
2013-06-18 05:44:00,66.2,62.2,29.84,SW,225,0.7,1.6,87,0.00,,,0.19,WUHU216HW,2013-06-18 09:44:00,
2013-06-18 05:49:00,66.2,62.2,29.84,SSW,203,3.1,3.1,87,0.00,,,0.19,WUHU216HW,2013-06-18 09:49:00,
2013-06-18 05:54:00,66.1,62.4,29.84,SSW,203,0.2,3.1,88,0.00,,,0.19,WUHU216HW,2013-06-18 09:54:00,
2013-06-18 05:59:00,66.1,62.4,29.84,SW,225,0.0,2.9,88,0.00,,,0.19,WUHU216HW,2013-06-18 09:59:00,
2013-06-18 06:04:00,65.9,61.8,29.84,SSW,203,0.9,0.9,87,0.00,,,0.19,WUHU216HW,2013-06-18 10:04:00,
2013-06-18 06:09:00,65.9,61.8,29.85,WSW,248,0.0,0.9,87,0.01,,,0.19,WUHU216HW,2013-06-18 10:09:00,
2013-06-18 06:14:00,65.9,61.8,29.85,SW,225,0.0,0.7,87,0.01,,,0.19,WUHU216HW,2013-06-18 10:14:00,
2013-06-18 06:19:00,66.2,62.2,29.85,SW,225,0.0,0.7,87,0.01,,,0.19,WUHU216HW,2013-06-18 10:19:00,
2013-06-18 06:24:00,66.2,62.2,29.85,South,180,0.7,1.8,87,0.01,,,0.19,WUHU216HW,2013-06-18 10:24:00,
2013-06-18 06:29:00,66.4,62.4,29.85,South,180,0.4,1.8,87,0.01,,,0.19,WUHU216HW,2013-06-18 10:29:00,
2013-06-18 06:34:00,66.6,62.6,29.85,SSW,203,0.0,1.6,87,0.01,,,0.19,WUHU216HW,2013-06-18 10:34:00,
2013-06-18 06:39:00,66.6,62.6,29.85,SSW,203,1.8,1.8,87,0.01,,,0.19,WUHU216HW,2013-06-18 10:39:00,
2013-06-18 06:44:00,66.6,62.9,29.85,SW,225,0.0,1.8,88,0.01,,,0.19,WUHU216HW,2013-06-18 10:44:00,
2013-06-18 06:49:00,66.6,62.9,29.85,WNW,293,0.0,0.9,88,0.01,,,0.19,WUHU216HW,2013-06-18 10:49:00,
2013-06-18 06:54:00,66.6,62.6,29.85,WNW,293,0.0,0.0,87,0.01,,,0.19,WUHU216HW,2013-06-18 10:54:00,
2013-06-18 06:59:00,66.6,62.9,29.85,West,270,0.0,0.0,88,0.01,,,0.19,WUHU216HW,2013-06-18 10:59:00,
2013-06-18 07:04:00,66.6,62.9,29.85,West,270,0.0,0.0,88,0.00,,,0.19,WUHU216HW,2013-06-18 11:04:00,
2013-06-18 07:09:00,66.6,62.9,29.85,West,270,0.0,0.0,88,0.00,,,0.19,WUHU216HW,2013-06-18 11:09:00,
2013-06-18 07:14:00,66.6,62.9,29.84,North,0,0.0,0.7,88,0.00,,,0.19,WUHU216HW,2013-06-18 11:14:00,
2013-06-18 07:19:00,66.8,63.1,29.85,East,90,0.4,0.7,88,0.00,,,0.19,WUHU216HW,2013-06-18 11:19:00,
2013-06-18 07:24:00,67.0,63.3,29.85,North,0,0.4,0.7,88,0.00,,,0.19,WUHU216HW,2013-06-18 11:24:00,
2013-06-18 07:29:00,67.0,63.3,29.85,East,90,0.7,0.7,88,0.00,,,0.19,WUHU216HW,2013-06-18 11:29:00,
2013-06-18 07:34:00,67.1,63.5,29.86,South,180,0.0,1.3,88,0.00,,,0.19,WUHU216HW,2013-06-18 11:34:00,
2013-06-18 07:39:00,67.3,63.6,29.86,South,180,0.7,1.3,88,0.00,,,0.19,WUHU216HW,2013-06-18 11:39:00,
2013-06-18 07:44:00,67.3,63.6,29.86,South,180,0.0,0.7,88,0.00,,,0.19,WUHU216HW,2013-06-18 11:44:00,
2013-06-18 07:50:00,67.3,63.6,29.86,South,180,0.7,0.7,88,0.00,,,0.19,WUHU216HW,2013-06-18 11:50:00,
2013-06-18 07:55:00,67.7,64.0,29.86,South,180,0.0,0.7,88,0.00,,,0.19,WUHU216HW,2013-06-18 11:55:00,
2013-06-18 08:00:00,67.7,64.0,29.85,South,180,1.1,1.1,88,0.00,,,0.19,WUHU216HW,2013-06-18 12:00:00,
2013-06-18 08:05:00,67.7,64.0,29.85,North,0,0.0,1.1,88,0.00,,,0.19,WUHU216HW,2013-06-18 12:05:00,
2013-06-18 08:10:00,67.7,63.6,29.85,North,0,0.0,1.1,87,0.00,,,0.19,WUHU216HW,2013-06-18 12:10:00,
2013-06-18 08:15:00,67.9,64.2,29.85,North,0,0.9,1.1,88,0.00,,,0.19,WUHU216HW,2013-06-18 12:15:00,
2013-06-18 08:20:00,67.7,63.6,29.86,North,0,0.4,1.1,87,0.00,,,0.19,WUHU216HW,2013-06-18 12:20:00,
2013-06-18 08:25:00,67.9,63.8,29.86,NNE,23,0.0,0.4,87,0.00,,,0.19,WUHU216HW,2013-06-18 12:25:00,
2013-06-18 08:30:00,68.0,64.0,29.86,SSW,203,1.8,2.0,87,0.00,,,0.19,WUHU216HW,2013-06-18 12:30:00,
2013-06-18 08:35:00,68.2,64.2,29.87,SSW,203,1.1,2.0,87,0.00,,,0.19,WUHU216HW,2013-06-18 12:35:00,
2013-06-18 08:40:00,68.4,64.4,29.87,WSW,248,1.6,2.0,87,0.00,,,0.19,WUHU216HW,2013-06-18 12:40:00,
2013-06-18 08:45:00,68.6,64.2,29.87,SSE,158,1.1,1.6,86,0.00,,,0.19,WUHU216HW,2013-06-18 12:45:00,
2013-06-18 08:50:00,68.6,64.2,29.87,SSW,203,1.8,2.0,86,0.00,,,0.19,WUHU216HW,2013-06-18 12:50:00,
2013-06-18 08:55:00,68.6,64.2,29.87,SSE,158,0.9,2.0,86,0.00,,,0.19,WUHU216HW,2013-06-18 12:55:00,
2013-06-18 09:00:00,68.8,64.4,29.87,SE,135,0.0,1.8,86,0.00,,,0.19,WUHU216HW,2013-06-18 13:00:00,
2013-06-18 09:05:00,68.8,64.4,29.87,SE,135,0.0,0.7,86,0.00,,,0.19,WUHU216HW,2013-06-18 13:05:00,
2013-06-18 09:10:00,68.8,64.4,29.87,SSE,158,0.2,0.7,86,0.00,,,0.19,WUHU216HW,2013-06-18 13:10:00,
2013-06-18 09:15:00,68.9,64.5,29.87,South,180,1.3,1.3,86,0.00,,,0.19,WUHU216HW,2013-06-18 13:15:00,
2013-06-18 09:20:00,69.1,64.7,29.87,SW,225,0.4,1.3,86,0.00,,,0.19,WUHU216HW,2013-06-18 13:20:00,
2013-06-18 09:25:00,69.1,64.7,29.87,SE,135,0.0,1.1,86,0.00,,,0.19,WUHU216HW,2013-06-18 13:25:00,
2013-06-18 09:30:00,69.1,64.7,29.87,SSE,158,0.7,0.7,86,0.00,,,0.19,WUHU216HW,2013-06-18 13:30:00,
2013-06-18 09:35:00,69.3,64.9,29.87,SW,225,0.4,0.7,86,0.00,,,0.19,WUHU216HW,2013-06-18 13:35:00,
2013-06-18 09:40:00,69.3,64.9,29.86,ESE,113,0.0,0.7,86,0.00,,,0.19,WUHU216HW,2013-06-18 13:40:00,
2013-06-18 09:45:00,69.3,64.9,29.86,ESE,113,0.7,0.7,86,0.00,,,0.19,WUHU216HW,2013-06-18 13:45:00,
2013-06-18 09:50:00,69.5,65.1,29.86,SSW,203,0.4,0.9,86,0.01,,,0.21,WUHU216HW,2013-06-18 13:50:00,
2013-06-18 09:55:00,69.5,65.1,29.86,SSE,158,0.0,0.9,86,0.01,,,0.21,WUHU216HW,2013-06-18 13:55:00,
2013-06-18 10:00:00,69.5,65.1,29.86,SSW,203,0.9,0.9,86,0.01,,,0.21,WUHU216HW,2013-06-18 14:00:00,
2013-06-18 10:06:00,69.7,65.3,29.86,SSE,158,0.4,0.9,86,0.01,,,0.21,WUHU216HW,2013-06-18 14:06:00,
2013-06-18 10:11:00,69.7,65.3,29.85,SSE,158,0.0,0.9,86,0.01,,,0.21,WUHU216HW,2013-06-18 14:11:00,
2013-06-18 10:17:00,69.8,65.4,29.85,SSE,158,0.0,0.4,86,0.01,,,0.21,WUHU216HW,2013-06-18 14:17:00,
2013-06-18 10:22:00,70.2,65.8,29.85,ESE,113,0.0,0.7,86,0.01,,,0.21,WUHU216HW,2013-06-18 14:22:00,
2013-06-18 10:27:00,70.2,65.8,29.85,NW,315,0.4,0.7,86,0.01,,,0.21,WUHU216HW,2013-06-18 14:27:00,
2013-06-18 10:32:00,70.2,65.8,29.85,NW,315,0.0,0.4,86,0.01,,,0.21,WUHU216HW,2013-06-18 14:32:00,
2013-06-18 10:37:00,70.4,66.0,29.85,North,0,0.0,0.7,86,0.01,,,0.21,WUHU216HW,2013-06-18 14:37:00,
2013-06-18 10:42:00,70.4,66.0,29.85,North,0,0.0,0.7,86,0.01,,,0.21,WUHU216HW,2013-06-18 14:42:00,
2013-06-18 10:48:00,70.7,66.3,29.85,SSW,203,0.0,0.4,86,0.01,,,0.21,WUHU216HW,2013-06-18 14:48:00,
2013-06-18 10:53:00,70.9,66.5,29.86,SSW,203,0.0,0.4,86,0.00,,,0.21,WUHU216HW,2013-06-18 14:53:00,
2013-06-18 10:58:00,70.9,66.5,29.85,SSW,203,0.4,0.4,86,0.00,,,0.21,WUHU216HW,2013-06-18 14:58:00,
2013-06-18 11:03:00,70.9,66.5,29.85,SSW,203,0.4,0.4,86,0.00,,,0.21,WUHU216HW,2013-06-18 15:03:00,
2013-06-18 11:08:00,70.7,66.3,29.85,SSW,203,0.0,0.4,86,0.00,,,0.21,WUHU216HW,2013-06-18 15:08:00,
2013-06-18 11:13:00,70.6,66.2,29.85,SSW,203,0.0,0.4,86,0.00,,,0.21,WUHU216HW,2013-06-18 15:13:00,
2013-06-18 11:18:00,70.6,66.2,29.85,SSW,203,0.0,0.0,86,0.00,,,0.21,WUHU216HW,2013-06-18 15:18:00,
2013-06-18 11:23:00,70.6,66.2,29.85,SSW,203,0.0,0.0,86,0.00,,,0.21,WUHU216HW,2013-06-18 15:23:00,
2013-06-18 11:28:00,70.4,66.0,29.86,WSW,248,0.4,0.9,86,0.01,,,0.22,WUHU216HW,2013-06-18 15:28:00,
2013-06-18 11:33:00,70.6,66.2,29.86,SW,225,1.8,1.8,86,0.01,,,0.22,WUHU216HW,2013-06-18 15:33:00,
2013-06-18 11:38:00,70.6,66.2,29.86,SSE,158,3.8,3.8,86,0.01,,,0.22,WUHU216HW,2013-06-18 15:38:00,
2013-06-18 11:43:00,70.6,66.5,29.86,SSW,203,0.4,3.8,87,0.02,,,0.22,WUHU216HW,2013-06-18 15:43:00,
2013-06-18 11:48:00,70.4,66.3,29.86,SSW,203,1.1,2.5,87,0.02,,,0.23,WUHU216HW,2013-06-18 15:48:00,
2013-06-18 11:53:00,70.6,66.5,29.86,SSW,203,0.9,2.5,87,0.04,,,0.24,WUHU216HW,2013-06-18 15:53:00,
2013-06-18 11:58:00,70.2,66.2,29.86,SSW,203,2.0,3.4,87,0.06,,,0.27,WUHU216HW,2013-06-18 15:58:00,
2013-06-18 12:03:00,70.2,66.2,29.86,SW,225,1.1,3.4,87,0.09,,,0.29,WUHU216HW,2013-06-18 16:03:00,
2013-06-18 12:08:00,69.8,65.8,29.86,WSW,248,2.9,3.8,87,0.16,,,0.35,WUHU216HW,2013-06-18 16:08:00,
2013-06-18 12:13:00,69.5,65.4,29.86,NE,45,0.7,3.8,87,0.33,,,0.48,WUHU216HW,2013-06-18 16:13:00,
2013-06-18 12:19:00,69.5,65.7,29.86,SW,225,1.1,1.8,88,0.63,,,0.80,WUHU216HW,2013-06-18 16:19:00,
2013-06-18 12:24:00,69.1,65.4,29.85,SSW,203,1.3,2.2,88,0.73,,,0.94,WUHU216HW,2013-06-18 16:24:00,
2013-06-18 12:29:00,69.1,65.4,29.85,West,270,0.0,2.2,88,0.76,,,0.98,WUHU216HW,2013-06-18 16:29:00,
2013-06-18 12:34:00,69.1,65.4,29.85,NW,315,0.0,0.2,88,0.77,,,0.99,WUHU216HW,2013-06-18 16:34:00,
2013-06-18 12:39:00,68.9,65.5,29.85,North,0,1.1,1.1,89,0.78,,,1.00,WUHU216HW,2013-06-18 16:39:00,
2013-06-18 12:44:00,68.9,65.5,29.85,NNE,23,1.8,3.4,89,0.79,,,1.02,WUHU216HW,2013-06-18 16:44:00,
2013-06-18 12:49:00,68.9,65.9,29.85,NNE,23,2.5,3.4,90,0.81,,,1.04,WUHU216HW,2013-06-18 16:49:00,
2013-06-18 12:55:00,69.1,65.7,29.85,NNE,23,2.7,2.9,89,0.80,,,1.06,WUHU216HW,2013-06-18 16:55:00,
2013-06-18 13:00:00,69.3,66.2,29.85,North,0,0.9,2.9,90,0.78,,,1.06,WUHU216HW,2013-06-18 17:00:00,
2013-06-18 13:04:00,69.3,66.2,29.85,NNW,338,0.7,0.7,90,0.69,,,1.06,WUHU216HW,2013-06-18 17:04:00,
2013-06-18 13:05:00,69.3,66.2,29.85,NNW,338,0.7,2.9,90,0.69,,,1.06,WUHU216HW,2013-06-18 17:05:00,
2013-06-18 13:10:00,69.3,66.2,29.85,NNW,338,0.7,0.7,90,0.69,,,1.06,WUHU216HW,2013-06-18 17:10:00,
2013-06-18 13:18:00,69.5,66.1,29.84,SSW,203,0.0,0.0,89,0.21,,,1.06,WUHU216HW,2013-06-18 17:18:00,
2013-06-18 13:23:00,69.7,66.2,29.85,North,0,0.4,1.1,89,0.13,,,1.07,WUHU216HW,2013-06-18 17:23:00,
2013-06-18 13:29:00,69.7,65.9,29.85,North,0,1.3,1.3,88,0.10,,,1.08,WUHU216HW,2013-06-18 17:29:00,
2013-06-18 13:34:00,69.5,65.7,29.85,North,0,1.1,1.3,88,0.09,,,1.08,WUHU216HW,2013-06-18 17:34:00,
2013-06-18 13:39:00,69.3,65.6,29.86,North,0,1.3,1.3,88,0.08,,,1.08,WUHU216HW,2013-06-18 17:39:00,
2013-06-18 13:44:00,69.1,65.1,29.86,North,0,0.7,1.6,87,0.06,,,1.08,WUHU216HW,2013-06-18 17:44:00,
2013-06-18 13:49:00,68.8,65.1,29.86,North,0,1.1,1.6,88,0.03,,,1.09,WUHU216HW,2013-06-18 17:49:00,
2013-06-18 13:54:00,68.9,65.3,29.85,NE,45,0.4,1.1,88,0.03,,,1.09,WUHU216HW,2013-06-18 17:54:00,
2013-06-18 13:59:00,68.9,65.3,29.85,NE,45,0.4,1.1,88,0.03,,,1.09,WUHU216HW,2013-06-18 17:59:00,
2013-06-18 15:00:00,68.2,64.5,29.83,SW,225,0.7,0.7,88,0.03,,,1.09,WUHU216HW,2013-06-18 19:00:00,
2013-06-18 15:05:00,68.2,64.5,29.82,SW,225,0.4,0.7,88,0.03,,,1.13,WUHU216HW,2013-06-18 19:05:00,
2013-06-18 15:10:00,68.6,64.9,29.82,SW,225,0.4,2.2,88,0.03,,,1.13,WUHU216HW,2013-06-18 19:10:00,
2013-06-18 15:15:00,68.8,65.1,29.82,SSW,203,0.7,2.2,88,0.03,,,1.13,WUHU216HW,2013-06-18 19:15:00,
2013-06-18 15:21:00,69.1,65.4,29.82,South,180,1.8,1.8,88,0.02,,,1.13,WUHU216HW,2013-06-18 19:21:00,
2013-06-18 15:26:00,69.5,65.7,29.82,NW,315,0.0,1.8,88,0.02,,,1.13,WUHU216HW,2013-06-18 19:26:00,
2013-06-18 15:31:00,69.5,65.7,29.82,NW,315,0.0,0.4,88,0.02,,,1.13,WUHU216HW,2013-06-18 19:31:00,
2013-06-18 15:36:00,70.4,66.6,29.82,SSE,158,0.0,0.0,88,0.01,,,1.13,WUHU216HW,2013-06-18 19:36:00,
2013-06-18 15:41:00,70.4,66.6,29.82,SSE,158,0.0,0.0,88,0.01,,,1.13,WUHU216HW,2013-06-18 19:41:00,
2013-06-18 15:46:00,70.6,66.5,29.81,SSE,158,0.4,0.7,87,0.00,,,1.13,WUHU216HW,2013-06-18 19:46:00,
2013-06-18 15:51:00,70.6,66.5,29.81,SSE,158,0.2,0.7,87,0.01,,,1.14,WUHU216HW,2013-06-18 19:51:00,
2013-06-18 15:56:00,70.6,66.5,29.80,SSE,158,0.4,1.1,87,0.01,,,1.14,WUHU216HW,2013-06-18 19:56:00,
2013-06-18 16:01:00,70.7,66.7,29.80,SSE,158,0.4,1.1,87,0.01,,,1.14,WUHU216HW,2013-06-18 20:01:00,
2013-06-18 16:06:00,70.9,66.9,29.80,SE,135,0.4,0.9,87,0.01,,,1.14,WUHU216HW,2013-06-18 20:06:00,
2013-06-18 16:11:00,70.9,66.9,29.80,SW,225,1.1,1.1,87,0.01,,,1.14,WUHU216HW,2013-06-18 20:11:00,
2013-06-18 16:16:00,70.9,66.9,29.80,SW,225,1.1,1.1,87,0.01,,,1.14,WUHU216HW,2013-06-18 20:16:00,
2013-06-18 16:21:00,70.7,66.7,29.80,WSW,248,2.2,2.2,87,0.01,,,1.14,WUHU216HW,2013-06-18 20:21:00,
2013-06-18 16:26:00,70.7,66.7,29.80,SW,225,1.8,3.4,87,0.01,,,1.14,WUHU216HW,2013-06-18 20:26:00,
2013-06-18 16:31:00,70.6,66.5,29.79,SSW,203,3.8,3.8,87,0.01,,,1.14,WUHU216HW,2013-06-18 20:31:00,
2013-06-18 16:36:00,70.7,66.7,29.79,SW,225,2.5,4.0,87,0.01,,,1.14,WUHU216HW,2013-06-18 20:36:00,
2013-06-18 16:41:00,70.7,66.7,29.79,SE,135,0.7,4.0,87,0.01,,,1.14,WUHU216HW,2013-06-18 20:41:00,
2013-06-18 16:46:00,70.9,66.9,29.79,South,180,1.3,3.4,87,0.01,,,1.14,WUHU216HW,2013-06-18 20:46:00,
2013-06-18 16:51:00,70.9,66.9,29.79,West,270,1.3,3.4,87,0.00,,,1.14,WUHU216HW,2013-06-18 20:51:00,
2013-06-18 16:56:00,70.9,67.1,29.79,NNE,23,0.4,3.4,88,0.00,,,1.14,WUHU216HW,2013-06-18 20:56:00,
2013-06-18 17:01:00,70.9,66.9,29.79,North,0,0.0,0.7,87,0.00,,,1.14,WUHU216HW,2013-06-18 21:01:00,
2013-06-18 17:06:00,70.7,66.7,29.80,North,0,0.0,0.7,87,0.00,,,1.14,WUHU216HW,2013-06-18 21:06:00,
2013-06-18 17:11:00,70.7,66.7,29.79,NE,45,0.2,0.9,87,0.00,,,1.14,WUHU216HW,2013-06-18 21:11:00,
2013-06-18 17:16:00,70.9,66.9,29.79,SSE,158,0.0,0.9,87,0.00,,,1.14,WUHU216HW,2013-06-18 21:16:00,
2013-06-18 17:21:00,71.1,67.1,29.79,SSE,158,0.0,0.7,87,0.00,,,1.14,WUHU216HW,2013-06-18 21:21:00,
2013-06-18 17:26:00,71.1,67.1,29.79,SSE,158,0.0,0.0,87,0.00,,,1.14,WUHU216HW,2013-06-18 21:26:00,
2013-06-18 17:31:00,71.1,67.1,29.79,SSE,158,0.0,0.0,87,0.00,,,1.14,WUHU216HW,2013-06-18 21:31:00,
2013-06-18 22:00:00,68.8,65.1,29.85,West,270,0.0,0.0,88,0.00,,,0.00,WUHU216HW,2013-06-19 02:00:00,
2013-06-18 22:05:00,68.8,65.1,29.85,West,270,0.0,0.0,88,0.00,,,0.00,WUHU216HW,2013-06-19 02:05:00,
2013-06-18 22:11:00,68.6,64.9,29.86,West,270,0.0,0.0,88,0.00,,,0.00,WUHU216HW,2013-06-19 02:11:00,
2013-06-18 22:16:00,68.6,64.9,29.86,West,270,0.0,0.0,88,0.00,,,0.00,WUHU216HW,2013-06-19 02:16:00,
2013-06-18 22:21:00,68.6,64.9,29.85,WSW,248,0.4,0.4,88,0.00,,,0.00,WUHU216HW,2013-06-19 02:21:00,
2013-06-18 22:24:00,68.4,64.7,29.86,SW,225,0.0,0.0,88,0.00,,,0.00,WUHU216HW,2013-06-19 02:24:00,
2013-06-18 22:26:00,68.4,64.7,29.86,SW,225,0.0,0.4,88,0.00,,,0.00,WUHU216HW,2013-06-19 02:26:00,
2013-06-18 22:31:00,68.4,64.7,29.86,SW,225,0.0,0.4,88,0.00,,,0.00,WUHU216HW,2013-06-19 02:31:00,
2013-06-18 22:46:00,68.4,65.0,29.86,North,0,0.4,0.4,89,0.00,,,0.00,WUHU216HW,2013-06-19 02:46:00,
2013-06-18 22:51:00,68.2,64.8,29.86,NNE,23,0.4,0.4,89,0.00,,,0.00,WUHU216HW,2013-06-19 02:51:00,
2013-06-18 22:57:00,68.2,64.5,29.86,North,0,0.0,0.0,88,0.00,,,0.00,WUHU216HW,2013-06-19 02:57:00,
2013-06-18 23:02:00,68.2,64.5,29.86,North,0,0.0,0.0,88,0.00,,,0.00,WUHU216HW,2013-06-19 03:02:00,
2013-06-18 23:07:00,68.2,64.5,29.86,North,0,0.0,0.0,88,0.00,,,0.00,WUHU216HW,2013-06-19 03:07:00,
2013-06-18 23:12:00,68.2,64.5,29.86,SSW,203,0.4,0.4,88,0.00,,,0.00,WUHU216HW,2013-06-19 03:12:00,
2013-06-18 23:17:00,68.2,64.5,29.86,WSW,248,0.0,0.4,88,0.00,,,0.00,WUHU216HW,2013-06-19 03:17:00,
2013-06-18 23:22:00,68.0,64.4,29.86,SW,225,0.2,0.7,88,0.00,,,0.00,WUHU216HW,2013-06-19 03:22:00,
2013-06-18 23:27:00,68.0,64.4,29.87,SSE,158,0.2,0.7,88,0.00,,,0.00,WUHU216HW,2013-06-19 03:27:00,
2013-06-18 23:32:00,68.0,64.4,29.87,SW,225,0.4,0.9,88,0.00,,,0.00,WUHU216HW,2013-06-19 03:32:00,
2013-06-18 23:37:00,67.9,64.2,29.87,SW,225,0.0,0.9,88,0.00,,,0.00,WUHU216HW,2013-06-19 03:37:00,
2013-06-18 23:42:00,67.9,64.2,29.87,WSW,248,0.4,1.1,88,0.00,,,0.00,WUHU216HW,2013-06-19 03:42:00,
2013-06-18 23:47:00,67.9,64.2,29.87,SW,225,0.2,1.1,88,0.00,,,0.00,WUHU216HW,2013-06-19 03:47:00,
2013-06-18 23:52:00,67.7,64.0,29.87,South,180,1.6,1.8,88,0.00,,,0.00,WUHU216HW,2013-06-19 03:52:00,
2013-06-18 23:59:00,67.7,64.0,29.87,NNW,338,0.0,1.8,88,0.00,,,0.00,WUHU216HW,2013-06-19 03:59:00,